createdAt,value
2019-02-10T00:01:47.643Z,69.49
2019-02-10T00:04:15.035Z,69.33
2019-02-10T00:06:42.457Z,69.39
2019-02-10T00:09:09.922Z,69.29
2019-02-10T00:11:37.291Z,69.14
2019-02-10T00:14:04.755Z,69.31
2019-02-10T00:16:32.280Z,69.51
2019-02-10T00:18:59.736Z,69.49
2019-02-10T00:21:27.093Z,69.32
2019-02-10T00:23:54.467Z,69.45
2019-02-10T00:26:21.934Z,69.67
2019-02-10T00:28:49.295Z,69.60
2019-02-10T00:31:17.095Z,69.78
2019-02-10T00:33:44.541Z,69.91
2019-02-10T00:36:11.959Z,69.88
2019-02-10T00:38:39.316Z,69.92
2019-02-10T00:41:06.718Z,69.83
2019-02-10T00:43:34.086Z,69.82
2019-02-10T00:46:01.439Z,69.81
2019-02-10T00:48:28.846Z,69.66
2019-02-10T00:50:56.227Z,69.29
2019-02-10T00:53:23.720Z,69.42
2019-02-10T00:55:51.162Z,69.58
2019-02-10T00:58:18.579Z,69.31
2019-02-10T01:00:45.980Z,69.25
2019-02-10T01:03:14.123Z,69.39
2019-02-10T01:05:41.474Z,69.42
2019-02-10T01:08:08.923Z,69.34
2019-02-10T01:10:36.428Z,69.51
2019-02-10T01:13:04.157Z,69.29
2019-02-10T01:15:31.545Z,69.22
2019-02-10T01:17:58.958Z,69.03
2019-02-10T01:20:26.374Z,68.95
2019-02-10T01:22:53.807Z,68.80
2019-02-10T01:25:21.205Z,68.47
2019-02-10T01:27:48.592Z,68.75
2019-02-10T01:30:15.987Z,68.81
2019-02-10T01:32:43.349Z,68.64
2019-02-10T01:35:11.265Z,68.46
2019-02-10T01:37:38.761Z,68.52
2019-02-10T01:40:06.862Z,68.62
2019-02-10T01:42:34.304Z,68.66
2019-02-10T01:45:01.679Z,68.61
2019-02-10T01:47:29.179Z,68.49
2019-02-10T01:49:56.571Z,68.47
2019-02-10T01:52:23.951Z,68.61
2019-02-10T01:54:51.341Z,68.67
2019-02-10T01:57:18.754Z,68.67
2019-02-10T01:59:46.207Z,68.48
2019-02-10T02:02:13.576Z,68.11
2019-02-10T02:04:41.534Z,67.76
2019-02-10T02:07:08.941Z,67.54
2019-02-10T02:09:36.394Z,67.55
2019-02-10T02:12:04.974Z,67.39
2019-02-10T02:14:32.370Z,66.99
2019-02-10T02:16:59.728Z,67.01
2019-02-10T02:19:27.223Z,66.88
2019-02-10T02:21:54.594Z,66.84
2019-02-10T02:24:22.314Z,66.68
2019-02-10T02:26:49.703Z,66.67
2019-02-10T02:29:17.131Z,66.54
2019-02-10T02:31:44.543Z,66.38
2019-02-10T02:34:11.916Z,66.60
2019-02-10T02:36:42.160Z,66.52
2019-02-10T02:39:09.738Z,66.37
2019-02-10T02:41:37.107Z,66.35
2019-02-10T02:44:04.607Z,66.52
2019-02-10T02:46:31.963Z,66.36
2019-02-10T02:48:59.334Z,65.98
2019-02-10T02:51:26.743Z,66.37
2019-02-10T02:53:54.103Z,66.29
2019-02-10T02:56:21.555Z,66.47
2019-02-10T02:58:48.939Z,66.35
2019-02-10T03:01:16.310Z,66.55
2019-02-10T03:03:43.673Z,66.61
2019-02-10T03:06:11.167Z,66.57
2019-02-10T03:08:38.615Z,66.53
2019-02-10T03:11:06.149Z,66.49
2019-02-10T03:13:33.610Z,66.39
2019-02-10T03:16:01.034Z,66.39
2019-02-10T03:18:28.427Z,66.47
2019-02-10T03:20:55.915Z,66.48
2019-02-10T03:23:23.374Z,66.50
2019-02-10T03:25:50.799Z,66.33
2019-02-10T03:28:18.157Z,66.52
2019-02-10T03:30:45.556Z,66.68
2019-02-10T03:33:13.043Z,66.77
2019-02-10T03:35:40.491Z,66.52
2019-02-10T03:38:07.918Z,65.93
2019-02-10T03:40:35.319Z,66.11
2019-02-10T03:43:02.776Z,65.84
2019-02-10T03:45:30.122Z,65.94
2019-02-10T03:47:57.518Z,65.73
2019-02-10T03:50:24.882Z,65.77
2019-02-10T03:52:52.277Z,65.86
2019-02-10T03:55:19.665Z,65.99
2019-02-10T03:57:47.119Z,66.04
2019-02-10T04:00:14.586Z,66.05
2019-02-10T04:02:42.050Z,66.20
2019-02-10T04:05:09.421Z,66.29
2019-02-10T04:07:36.801Z,66.53
2019-02-10T04:10:04.302Z,66.71
2019-02-10T04:12:31.668Z,66.37
2019-02-10T04:14:59.151Z,66.32
2019-02-10T04:17:26.549Z,66.03
2019-02-10T04:19:53.951Z,65.71
2019-02-10T04:22:21.397Z,65.80
2019-02-10T04:24:48.754Z,65.61
2019-02-10T04:27:16.113Z,65.31
2019-02-10T04:29:43.521Z,65.56
2019-02-10T04:32:10.880Z,65.84
2019-02-10T04:34:38.244Z,66.00
2019-02-10T04:37:05.626Z,66.30
2019-02-10T04:39:32.998Z,66.38
2019-02-10T04:42:00.491Z,66.22
2019-02-10T04:44:27.947Z,65.52
2019-02-10T04:46:55.307Z,65.64
2019-02-10T04:49:22.759Z,65.67
2019-02-10T04:51:50.278Z,65.75
2019-02-10T04:54:17.646Z,65.93
2019-02-10T04:56:45.108Z,66.07
2019-02-10T04:59:12.490Z,66.26
2019-02-10T05:01:39.851Z,66.46
2019-02-10T05:04:07.274Z,66.50
2019-02-10T05:06:34.735Z,66.44
2019-02-10T05:09:03.698Z,66.52
2019-02-10T05:11:31.089Z,66.37
2019-02-10T05:13:58.463Z,66.55
2019-02-10T05:16:25.859Z,66.63
2019-02-10T05:18:53.262Z,66.74
2019-02-10T05:21:20.821Z,66.73
2019-02-10T05:23:48.431Z,66.43
2019-02-10T05:26:15.811Z,65.90
2019-02-10T05:28:43.165Z,65.98
2019-02-10T05:31:10.688Z,65.49
2019-02-10T05:33:38.028Z,64.74
2019-02-10T05:36:05.704Z,63.88
2019-02-10T05:38:33.054Z,63.21
2019-02-10T05:41:00.452Z,62.53
2019-02-10T05:43:27.865Z,62.01
2019-02-10T05:45:55.223Z,62.18
2019-02-10T05:48:22.676Z,61.86
2019-02-10T05:50:50.067Z,62.30
2019-02-10T05:53:17.520Z,61.65
2019-02-10T05:55:44.914Z,61.44
2019-02-10T05:58:12.353Z,61.63
2019-02-10T06:00:39.843Z,61.06
2019-02-10T06:03:07.313Z,60.94
2019-02-10T06:05:34.753Z,60.80
2019-02-10T06:08:02.144Z,59.89
2019-02-10T06:10:29.525Z,59.37
2019-02-10T06:12:56.914Z,58.32
2019-02-10T06:15:24.266Z,58.18
2019-02-10T06:17:51.627Z,58.70
2019-02-10T06:20:19.233Z,58.30
2019-02-10T06:22:46.586Z,58.00
2019-02-10T06:25:14.519Z,57.34
2019-02-10T06:27:41.921Z,57.15
2019-02-10T06:30:09.742Z,56.77
2019-02-10T06:32:37.153Z,56.40
2019-02-10T06:35:05.052Z,56.94
2019-02-10T06:37:32.488Z,56.78
2019-02-10T06:39:59.873Z,56.92
2019-02-10T06:42:27.262Z,56.94
2019-02-10T06:44:54.639Z,57.05
2019-02-10T06:47:22.081Z,56.40
2019-02-10T06:49:49.535Z,55.34
2019-02-10T06:52:18.699Z,55.46
2019-02-10T06:54:56.761Z,55.91
2019-02-10T06:57:24.850Z,55.97
2019-02-10T07:00:17.814Z,55.97
2019-02-10T07:03:08.391Z,55.68
2019-02-10T07:05:35.779Z,55.55
2019-02-10T07:08:03.136Z,55.94
2019-02-10T07:10:31.719Z,56.08
2019-02-10T07:12:59.127Z,56.31
2019-02-10T07:15:47.134Z,56.52
2019-02-10T07:18:32.585Z,56.87
2019-02-10T07:21:00.058Z,56.62
2019-02-10T07:24:05.398Z,57.37
2019-02-10T07:26:58.080Z,56.39
2019-02-10T07:29:43.720Z,55.88
2019-02-10T07:32:31.896Z,55.54
2019-02-10T07:35:04.618Z,55.24
2019-02-10T07:37:37.774Z,54.81
2019-02-10T07:40:24.644Z,54.86
2019-02-10T07:43:18.002Z,53.94
2019-02-10T07:46:07.850Z,52.65
2019-02-10T07:48:38.064Z,52.00
2019-02-10T07:51:43.132Z,51.71
2019-02-10T07:54:16.087Z,52.11
2019-02-10T07:57:05.823Z,52.53
2019-02-10T07:59:51.684Z,52.63
2019-02-10T08:02:56.694Z,53.33
2019-02-10T08:05:35.196Z,53.65
2019-02-10T08:08:22.165Z,54.02
2019-02-10T08:11:12.134Z,54.50
2019-02-10T08:13:45.878Z,54.83
2019-02-10T08:16:20.842Z,54.85
2019-02-10T08:19:14.146Z,54.94
2019-02-10T08:21:54.908Z,55.36
2019-02-10T08:24:27.507Z,55.13
2019-02-10T08:26:59.767Z,55.16
2019-02-10T08:29:30.237Z,54.99
2019-02-10T08:32:35.570Z,54.50
2019-02-10T08:35:06.936Z,54.63
2019-02-10T08:37:42.006Z,54.56
2019-02-10T08:40:31.003Z,54.55
2019-02-10T08:43:24.422Z,54.42
2019-02-10T08:46:13.136Z,54.66
2019-02-10T08:48:49.491Z,54.74
2019-02-10T08:51:36.422Z,54.88
2019-02-10T08:54:04.166Z,55.32
2019-02-10T08:56:31.622Z,55.53
2019-02-10T08:58:59.019Z,55.65
2019-02-10T09:01:26.486Z,55.62
2019-02-10T09:03:53.976Z,55.79
2019-02-10T09:06:21.452Z,55.90
2019-02-10T09:08:48.816Z,55.54
2019-02-10T09:11:16.338Z,55.22
2019-02-10T09:13:43.846Z,55.17
2019-02-10T09:16:11.227Z,55.14
2019-02-10T09:18:38.627Z,55.01
2019-02-10T09:21:06.071Z,55.28
2019-02-10T09:23:33.452Z,55.42
2019-02-10T09:26:00.840Z,55.88
2019-02-10T09:28:28.269Z,55.24
2019-02-10T09:30:55.686Z,54.97
2019-02-10T09:33:23.097Z,54.93
2019-02-10T09:35:50.493Z,54.65
2019-02-10T09:38:17.919Z,54.09
2019-02-10T09:40:45.374Z,54.08
2019-02-10T09:43:12.791Z,53.20
2019-02-10T09:45:40.208Z,53.10
2019-02-10T09:48:07.768Z,53.13
2019-02-10T09:50:35.233Z,53.42
2019-02-10T09:53:02.630Z,53.39
2019-02-10T09:55:30.047Z,53.72
2019-02-10T09:57:57.498Z,53.33
2019-02-10T10:00:24.925Z,53.00
2019-02-10T10:02:52.403Z,53.31
2019-02-10T10:05:19.977Z,53.33
2019-02-10T10:07:47.520Z,53.36
2019-02-10T10:10:15.052Z,53.31
2019-02-10T10:12:42.807Z,53.45
2019-02-10T10:15:11.199Z,53.67
2019-02-10T10:17:38.613Z,53.51
2019-02-10T10:20:07.133Z,53.49
2019-02-10T10:22:34.649Z,53.87
2019-02-10T10:25:02.074Z,53.81
2019-02-10T10:27:29.478Z,53.69
2019-02-10T10:29:56.900Z,53.84
2019-02-10T10:32:24.273Z,53.57
2019-02-10T10:34:51.693Z,53.44
2019-02-10T10:37:19.219Z,53.05
2019-02-10T10:39:46.654Z,52.87
2019-02-10T10:42:14.090Z,52.42
2019-02-10T10:44:41.614Z,52.43
2019-02-10T10:47:09.061Z,51.78
2019-02-10T10:49:36.586Z,51.67
2019-02-10T10:52:04.020Z,51.73
2019-02-10T10:54:31.754Z,51.44
2019-02-10T10:56:59.281Z,50.45
2019-02-10T10:59:26.791Z,50.39
2019-02-10T11:01:54.271Z,51.29
2019-02-10T11:04:21.758Z,50.12
2019-02-10T11:06:49.242Z,50.06
2019-02-10T11:09:16.768Z,50.05
2019-02-10T11:11:44.285Z,49.47
2019-02-10T11:14:11.761Z,49.49
2019-02-10T11:16:39.276Z,49.82
2019-02-10T11:19:06.696Z,49.21
2019-02-10T11:21:34.214Z,48.80
2019-02-10T11:24:01.999Z,48.88
2019-02-10T11:26:29.576Z,48.94
2019-02-10T11:28:57.079Z,48.61
2019-02-10T11:31:24.549Z,48.77
2019-02-10T11:33:51.938Z,49.10
2019-02-10T11:36:19.358Z,49.39
2019-02-10T11:38:46.901Z,49.55
2019-02-10T11:41:14.405Z,49.39
2019-02-10T11:43:41.931Z,48.91
2019-02-10T11:46:09.430Z,49.31
2019-02-10T11:48:37.078Z,49.37
2019-02-10T11:51:04.491Z,49.20
2019-02-10T11:53:31.879Z,48.87
2019-02-10T11:55:59.318Z,49.13
2019-02-10T11:58:26.754Z,48.90
2019-02-10T12:00:54.226Z,48.59
2019-02-10T12:03:21.623Z,48.14
2019-02-10T12:05:49.232Z,48.41
2019-02-10T12:08:16.713Z,48.37
2019-02-10T12:10:44.130Z,48.03
2019-02-10T12:13:11.621Z,48.24
2019-02-10T12:15:39.106Z,48.34
2019-02-10T12:18:06.527Z,48.42
2019-02-10T12:20:34.015Z,49.31
2019-02-10T12:23:01.391Z,49.06
2019-02-10T12:25:28.843Z,48.46
2019-02-10T12:27:56.549Z,48.80
2019-02-10T12:30:23.961Z,49.11
2019-02-10T12:32:51.450Z,49.62
2019-02-10T12:35:19.584Z,49.92
2019-02-10T12:37:46.959Z,50.13
2019-02-10T12:40:14.612Z,49.81
2019-02-10T12:42:42.049Z,50.80
2019-02-10T12:45:09.625Z,51.32
2019-02-10T12:47:37.284Z,52.29
2019-02-10T12:50:05.127Z,54.02
2019-02-10T12:52:33.771Z,54.79
2019-02-10T12:55:01.727Z,55.14
2019-02-10T12:57:29.607Z,55.86
2019-02-10T12:59:57.516Z,55.83
2019-02-10T13:02:25.365Z,57.07
2019-02-10T13:04:53.639Z,58.55
2019-02-10T13:07:21.899Z,60.77
2019-02-10T13:09:49.753Z,62.26
2019-02-10T13:12:17.673Z,63.75
2019-02-10T13:14:45.600Z,64.55
2019-02-10T13:17:13.544Z,65.54
2019-02-10T13:19:41.446Z,66.86
2019-02-10T13:22:09.403Z,67.50
2019-02-10T13:24:37.329Z,68.66
2019-02-10T13:27:05.429Z,69.55
2019-02-10T13:29:33.311Z,70.03
2019-02-10T13:32:01.248Z,70.92
2019-02-10T13:34:29.312Z,71.18
2019-02-10T13:36:57.175Z,72.13
2019-02-10T13:39:25.305Z,73.55
2019-02-10T13:41:51.620Z,73.82
2019-02-10T13:44:19.609Z,74.84
2019-02-10T13:46:47.557Z,75.03
2019-02-10T13:49:15.476Z,75.40
2019-02-10T13:51:43.427Z,75.81
2019-02-10T13:54:11.394Z,75.95
2019-02-10T13:56:39.355Z,76.38
2019-02-10T13:59:07.404Z,76.85
2019-02-10T14:01:35.369Z,77.16
2019-02-10T14:04:03.666Z,77.52
2019-02-10T14:06:31.674Z,77.97
2019-02-10T14:08:59.609Z,78.36
2019-02-10T14:11:27.569Z,78.43
2019-02-10T14:13:55.480Z,78.54
2019-02-10T14:16:23.346Z,78.28
2019-02-10T14:18:51.263Z,78.19
2019-02-10T14:21:19.219Z,78.65
2019-02-10T14:23:47.244Z,78.32
2019-02-10T14:26:15.232Z,78.22
2019-02-10T14:28:43.237Z,78.40
2019-02-10T14:31:11.149Z,78.42
2019-02-10T14:33:39.267Z,78.82
2019-02-10T14:36:07.152Z,78.18
2019-02-10T14:38:36.173Z,78.27
2019-02-10T14:41:04.576Z,78.09
2019-02-10T14:43:32.554Z,78.20
2019-02-10T14:46:03.151Z,78.74
2019-02-10T14:48:31.162Z,78.85
2019-02-10T14:50:59.120Z,79.11
2019-02-10T14:53:27.109Z,79.11
2019-02-10T14:55:55.029Z,78.74
2019-02-10T14:58:22.926Z,79.00
2019-02-10T15:00:50.883Z,79.02
2019-02-10T15:03:18.838Z,78.39
2019-02-10T15:05:47.072Z,78.41
2019-02-10T15:08:15.028Z,77.93
2019-02-10T15:10:42.990Z,78.18
2019-02-10T15:13:11.295Z,78.43
2019-02-10T15:15:39.206Z,78.64
2019-02-10T15:18:07.164Z,78.58
2019-02-10T15:20:35.255Z,78.19
2019-02-10T15:23:03.247Z,77.59
2019-02-10T15:25:31.134Z,77.57
2019-02-10T15:27:59.146Z,77.70
2019-02-10T15:30:27.225Z,77.64
2019-02-10T15:32:55.193Z,77.87
2019-02-10T15:35:23.707Z,78.78
2019-02-10T15:37:51.771Z,79.68
2019-02-10T15:40:19.730Z,80.32
2019-02-10T15:42:47.719Z,80.91
2019-02-10T15:45:15.708Z,81.65
2019-02-10T15:47:43.715Z,82.01
2019-02-10T15:50:11.704Z,82.43
2019-02-10T15:52:39.765Z,83.02
2019-02-10T15:55:09.049Z,83.43
2019-02-10T15:57:36.985Z,83.98
2019-02-10T16:00:09.078Z,84.24
2019-02-10T16:02:37.144Z,84.20
2019-02-10T16:05:05.332Z,82.88
2019-02-10T16:07:33.212Z,83.11
2019-02-10T16:10:01.080Z,82.99
2019-02-10T16:12:29.081Z,82.80
2019-02-10T16:14:56.958Z,82.20
2019-02-10T16:17:24.921Z,82.32
2019-02-10T16:19:52.831Z,81.88
2019-02-10T16:22:21.527Z,82.15
2019-02-10T16:24:49.521Z,82.19
2019-02-10T16:27:17.475Z,82.17
2019-02-10T16:29:45.409Z,82.53
2019-02-10T16:32:13.331Z,82.59
2019-02-10T16:34:41.215Z,82.25
2019-02-10T16:37:09.174Z,81.70
2019-02-10T16:39:37.105Z,81.61
2019-02-10T16:42:27.426Z,81.74
2019-02-10T16:44:55.785Z,81.58
2019-02-10T16:47:23.757Z,81.84
2019-02-10T16:49:51.726Z,81.83
2019-02-10T16:52:19.732Z,81.26
2019-02-10T16:54:47.644Z,81.02
2019-02-10T16:57:15.577Z,81.29
2019-02-10T16:59:46.186Z,81.62
2019-02-10T17:02:14.048Z,81.16
2019-02-10T17:04:41.936Z,81.64
2019-02-10T17:07:09.847Z,82.09
2019-02-10T17:09:37.702Z,81.42
2019-02-10T17:12:05.670Z,81.49
2019-02-10T17:14:33.529Z,81.41
2019-02-10T17:17:01.509Z,80.82
2019-02-10T17:19:29.390Z,80.33
2019-02-10T17:21:57.315Z,80.95
2019-02-10T17:24:25.390Z,80.62
2019-02-10T17:26:53.360Z,80.88
2019-02-10T17:29:21.254Z,81.88
2019-02-10T17:31:49.187Z,82.52
2019-02-10T17:34:17.093Z,82.85
2019-02-10T17:36:45.324Z,82.61
2019-02-10T17:39:17.516Z,82.14
2019-02-10T17:41:47.635Z,81.98
2019-02-10T17:44:15.623Z,81.69
2019-02-10T17:46:43.597Z,81.89
2019-02-10T17:49:11.795Z,81.84
2019-02-10T17:51:39.842Z,81.63
2019-02-10T17:54:07.717Z,81.60
2019-02-10T17:56:35.678Z,81.64
2019-02-10T17:59:03.707Z,82.24
2019-02-10T18:01:31.658Z,82.11
2019-02-10T18:03:59.561Z,81.74
2019-02-10T18:06:27.551Z,81.27
2019-02-10T18:08:55.493Z,79.90
2019-02-10T18:11:30.712Z,79.74
2019-02-10T18:13:53.332Z,79.83
2019-02-10T18:16:33.630Z,80.23
2019-02-10T18:19:14.862Z,79.85
2019-02-10T18:22:01.247Z,80.29
2019-02-10T18:24:47.682Z,80.01
2019-02-10T18:27:25.802Z,80.23
2019-02-10T18:30:13.558Z,79.15
2019-02-10T18:33:01.270Z,78.52
2019-02-10T18:35:40.052Z,78.75
2019-02-10T18:38:19.516Z,78.14
2019-02-10T18:41:06.596Z,78.66
2019-02-10T18:43:53.316Z,78.79
2019-02-10T18:46:31.037Z,77.50
2019-02-10T18:49:10.322Z,77.45
2019-02-10T18:51:57.830Z,77.87
2019-02-10T18:54:36.862Z,77.78
2019-02-10T18:57:27.401Z,77.55
2019-02-10T19:00:17.785Z,77.24
2019-02-10T19:03:05.286Z,77.46
2019-02-10T19:05:48.204Z,76.68
2019-02-10T19:08:34.647Z,76.34
2019-02-10T19:11:20.701Z,76.61
2019-02-10T19:14:04.220Z,76.38
2019-02-10T19:16:44.465Z,76.53
2019-02-10T19:19:35.011Z,77.51
2019-02-10T19:22:21.386Z,77.74
2019-02-10T19:25:11.525Z,77.79
2019-02-10T19:27:49.156Z,77.58
2019-02-10T19:30:43.073Z,77.96
2019-02-10T19:33:29.544Z,78.18
2019-02-10T19:36:15.909Z,78.51
2019-02-10T19:39:02.284Z,78.24
2019-02-10T19:41:55.491Z,78.19
2019-02-10T19:44:48.175Z,78.18
2019-02-10T19:47:44.797Z,78.50
2019-02-10T19:50:37.374Z,78.34
2019-02-10T19:53:22.208Z,78.21
2019-02-10T19:56:11.826Z,78.47
2019-02-10T19:58:47.919Z,77.92
2019-02-10T20:01:41.447Z,77.83
2019-02-10T20:04:44.109Z,77.32
2019-02-10T20:07:19.756Z,77.51
2019-02-10T20:10:25.451Z,77.61
2019-02-10T20:13:05.769Z,78.00
2019-02-10T20:15:55.086Z,78.93
2019-02-10T20:18:48.636Z,79.08
2019-02-10T20:21:27.121Z,78.84
2019-02-10T20:24:13.771Z,79.28
2019-02-10T20:27:16.475Z,79.38
2019-02-10T20:29:52.687Z,79.94
2019-02-10T20:32:31.086Z,79.92
2019-02-10T20:35:18.628Z,80.22
2019-02-10T20:38:08.364Z,80.49
2019-02-10T20:40:51.200Z,80.59
2019-02-10T20:43:33.221Z,80.81
2019-02-10T20:46:20.730Z,81.14
2019-02-10T20:49:07.207Z,81.13
2019-02-10T20:51:54.798Z,81.35
2019-02-10T20:54:38.223Z,81.72
2019-02-10T20:57:34.662Z,81.90
2019-02-10T21:00:25.555Z,81.80
2019-02-10T21:03:25.327Z,80.71
2019-02-10T21:06:11.505Z,80.63
2019-02-10T21:08:44.655Z,80.64
2019-02-10T21:11:30.761Z,80.31
2019-02-10T21:14:17.211Z,80.43
2019-02-10T21:17:04.957Z,80.46
2019-02-10T21:19:46.217Z,80.25
2019-02-10T21:22:25.146Z,80.21
2019-02-10T21:25:18.906Z,80.53
2019-02-10T21:28:12.429Z,80.83
2019-02-10T21:31:11.159Z,81.32
2019-02-10T21:34:01.537Z,81.51
2019-02-10T21:36:51.955Z,82.01
2019-02-10T21:39:42.538Z,82.08
2019-02-10T21:42:28.789Z,82.34
2019-02-10T21:45:12.209Z,82.02
2019-02-10T21:47:43.947Z,81.02
2019-02-10T21:50:11.920Z,80.87
2019-02-10T21:52:40.075Z,80.43
2019-02-10T21:55:08.230Z,79.36
2019-02-10T21:57:36.144Z,79.47
2019-02-10T22:00:06.024Z,79.20
2019-02-10T22:02:34.003Z,78.85
2019-02-10T22:05:01.926Z,78.58
2019-02-10T22:07:29.843Z,78.68
2019-02-10T22:09:57.748Z,78.11
2019-02-10T22:12:25.718Z,77.18
2019-02-10T22:14:53.583Z,77.32
2019-02-10T22:17:21.431Z,77.87
2019-02-10T22:19:49.714Z,77.21
2019-02-10T22:22:17.742Z,77.16
2019-02-10T22:24:45.603Z,76.77
2019-02-10T22:27:13.535Z,77.26
2019-02-10T22:29:41.474Z,76.81
2019-02-10T22:32:09.640Z,77.15
2019-02-10T22:34:37.604Z,77.17
2019-02-10T22:37:05.477Z,77.17
2019-02-10T22:39:33.386Z,76.78
2019-02-10T22:42:01.231Z,76.29
2019-02-10T22:44:29.120Z,76.23
2019-02-10T22:46:57.024Z,75.91
2019-02-10T22:49:24.904Z,75.60
2019-02-10T22:51:52.775Z,75.13
2019-02-10T22:54:20.667Z,75.14
2019-02-10T22:56:48.641Z,75.13
2019-02-10T22:59:16.503Z,75.27
2019-02-10T23:01:44.563Z,74.87
2019-02-10T23:04:12.446Z,75.36
2019-02-10T23:06:40.380Z,74.91
2019-02-10T23:09:13.160Z,74.95
2019-02-10T23:11:41.084Z,74.65
2019-02-10T23:14:08.926Z,74.82
2019-02-10T23:16:36.830Z,74.57
2019-02-10T23:19:04.696Z,74.64
2019-02-10T23:21:32.538Z,74.73
2019-02-10T23:24:00.713Z,74.81
2019-02-10T23:26:28.570Z,75.14
2019-02-10T23:28:56.454Z,75.27
2019-02-10T23:31:24.305Z,75.40
2019-02-10T23:33:52.186Z,75.47
2019-02-10T23:36:20.054Z,75.67
2019-02-10T23:38:47.921Z,75.17
2019-02-10T23:41:15.747Z,75.75
2019-02-10T23:43:43.615Z,76.09
2019-02-10T23:46:11.477Z,76.31
2019-02-10T23:48:39.409Z,76.44
2019-02-10T23:51:07.276Z,76.99
2019-02-10T23:53:35.132Z,77.26
2019-02-10T23:56:03.247Z,77.51
2019-02-10T23:58:31.090Z,77.66
